createdAt,value
2023-03-18T00:01:12.035Z,2.70
2023-03-18T00:03:45.142Z,2.97
2023-03-18T00:06:17.808Z,2.88
2023-03-18T00:08:48.126Z,3.70
2023-03-18T00:11:19.254Z,3.42
2023-03-18T00:13:48.027Z,3.30
2023-03-18T00:16:17.139Z,3.08
2023-03-18T00:18:47.734Z,3.50
2023-03-18T00:21:17.212Z,3.35
2023-03-18T00:26:14.830Z,3.90
2023-03-18T00:28:43.824Z,3.78
2023-03-18T00:31:14.380Z,3.08
2023-03-18T00:33:45.695Z,3.60
2023-03-18T00:36:19.077Z,3.28
2023-03-18T00:38:51.102Z,3.20
2023-03-18T00:41:19.576Z,3.40
2023-03-18T00:43:52.730Z,3.80
2023-03-18T00:46:24.959Z,3.97
2023-03-18T00:48:54.901Z,3.88
2023-03-18T00:51:27.375Z,4.07
2023-03-18T00:53:57.336Z,4.25
2023-03-18T00:56:28.217Z,4.53
2023-03-18T00:58:57.301Z,4.40
2023-03-18T01:01:26.535Z,4.57
2023-03-18T01:03:56.472Z,3.90
2023-03-18T01:06:28.695Z,4.28
2023-03-18T01:08:59.171Z,4.22
2023-03-18T01:11:27.255Z,4.60
2023-03-18T01:13:56.996Z,4.63
2023-03-18T01:16:26.103Z,4.28
2023-03-18T01:18:54.743Z,4.30
2023-03-18T01:21:23.871Z,4.30
2023-03-18T01:24:00.472Z,4.72
2023-03-18T01:26:31.011Z,5.40
2023-03-18T01:29:00.949Z,4.55
2023-03-18T01:31:31.308Z,5.15
2023-03-18T01:34:06.241Z,5.35
2023-03-18T01:36:44.549Z,5.10
2023-03-18T01:39:14.889Z,5.43
2023-03-18T01:41:43.064Z,5.13
2023-03-18T01:44:15.788Z,5.30
2023-03-18T01:46:49.963Z,5.53
2023-03-18T01:49:25.517Z,5.45
2023-03-18T01:51:56.549Z,6.00
2023-03-18T01:54:30.420Z,5.55
2023-03-18T01:56:59.101Z,5.50
2023-03-18T01:59:32.066Z,5.97
2023-03-18T02:02:04.688Z,6.80
2023-03-18T02:04:39.729Z,6.07
2023-03-18T02:07:08.930Z,6.38
2023-03-18T02:09:38.272Z,5.60
2023-03-18T02:12:10.094Z,5.53
2023-03-18T02:14:38.552Z,5.35
2023-03-18T02:17:12.145Z,5.95
2023-03-18T02:19:59.673Z,5.38
2023-03-18T02:22:33.171Z,5.22
2023-03-18T02:25:17.170Z,5.60
2023-03-18T02:27:51.153Z,6.05
2023-03-18T02:30:23.416Z,5.80
2023-03-18T02:32:55.227Z,6.45
2023-03-18T02:35:24.554Z,5.22
2023-03-18T02:37:54.535Z,5.55
2023-03-18T02:40:27.529Z,5.20
2023-03-18T02:42:58.535Z,5.32
2023-03-18T02:45:40.010Z,5.35
2023-03-18T02:48:16.240Z,4.60
2023-03-18T02:50:45.862Z,4.85
2023-03-18T02:53:14.590Z,5.88
2023-03-18T02:55:44.778Z,4.75
2023-03-18T02:58:14.509Z,4.95
2023-03-18T03:00:43.631Z,5.13
2023-03-18T03:03:12.517Z,5.30
2023-03-18T03:05:41.179Z,4.95
2023-03-18T03:08:09.961Z,5.85
2023-03-18T03:10:41.821Z,4.90
2023-03-18T03:16:01.933Z,5.40
2023-03-18T03:18:31.548Z,5.55
2023-03-18T03:20:59.790Z,5.70
2023-03-18T03:23:28.405Z,5.57
2023-03-18T03:25:57.614Z,6.22
2023-03-18T03:28:27.085Z,5.97
2023-03-18T03:30:55.746Z,5.88
2023-03-18T03:33:26.842Z,5.53
2023-03-18T03:35:55.703Z,5.15
2023-03-18T03:38:24.429Z,5.70
2023-03-18T03:40:56.736Z,5.68
2023-03-18T03:43:24.801Z,5.13
2023-03-18T03:45:52.704Z,5.97
2023-03-18T03:48:23.358Z,5.47
2023-03-18T03:50:53.326Z,5.28
2023-03-18T03:53:24.798Z,5.55
2023-03-18T03:55:59.012Z,4.97
2023-03-18T03:58:29.755Z,5.60
2023-03-18T04:01:01.067Z,4.95
2023-03-18T04:03:31.669Z,5.00
2023-03-18T04:06:01.262Z,5.50
2023-03-18T04:08:33.175Z,5.53
2023-03-18T04:11:02.713Z,5.65
2023-03-18T04:13:31.229Z,5.43
2023-03-18T04:16:02.010Z,4.90
2023-03-18T04:18:31.189Z,4.90
2023-03-18T04:20:59.108Z,4.85
2023-03-18T04:23:41.854Z,5.35
2023-03-18T04:26:10.532Z,5.15
2023-03-18T04:28:38.880Z,5.38
2023-03-18T04:31:10.283Z,5.30
2023-03-18T04:33:40.893Z,4.43
2023-03-18T04:36:11.808Z,5.05
2023-03-18T04:38:44.897Z,4.90
2023-03-18T04:41:15.819Z,4.70
2023-03-18T04:46:15.499Z,4.85
2023-03-18T04:48:48.114Z,4.50
2023-03-18T04:51:17.617Z,4.05
2023-03-18T04:53:47.332Z,4.53
2023-03-18T04:56:17.186Z,4.53
2023-03-18T04:58:52.010Z,4.45
2023-03-18T05:01:25.636Z,4.57
2023-03-18T05:03:56.254Z,4.50
2023-03-18T05:06:33.595Z,4.35
2023-03-18T05:09:13.757Z,4.03
2023-03-18T05:11:44.594Z,4.32
2023-03-18T05:14:37.500Z,4.28
2023-03-18T05:17:06.118Z,4.43
2023-03-18T05:19:37.685Z,5.75
2023-03-18T05:22:17.934Z,4.20
2023-03-18T05:24:50.487Z,4.22
2023-03-18T05:27:20.830Z,4.50
2023-03-18T05:30:00.105Z,4.70
2023-03-18T05:32:40.871Z,4.22
2023-03-18T05:35:13.741Z,4.68
2023-03-18T05:37:50.652Z,4.40
2023-03-18T05:40:22.399Z,4.65
2023-03-18T05:43:07.634Z,4.38
2023-03-18T05:45:58.092Z,4.43
2023-03-18T05:48:47.622Z,4.78
2023-03-18T05:51:18.137Z,4.53
2023-03-18T05:53:47.808Z,4.88
2023-03-18T05:56:28.136Z,4.53
2023-03-18T05:59:00.416Z,4.47
2023-03-18T06:01:39.107Z,5.05
2023-03-18T06:04:10.481Z,5.13
2023-03-18T06:06:41.546Z,4.80
2023-03-18T06:09:10.720Z,4.80
2023-03-18T06:11:41.784Z,4.88
2023-03-18T06:14:10.364Z,5.45
2023-03-18T06:16:43.854Z,5.05
2023-03-18T06:19:14.532Z,5.13
2023-03-18T06:21:43.798Z,5.28
2023-03-18T06:24:15.481Z,5.97
2023-03-18T06:26:47.753Z,5.03
2023-03-18T06:29:18.338Z,5.30
2023-03-18T06:31:48.492Z,5.70
2023-03-18T06:34:22.146Z,5.53
2023-03-18T06:36:51.477Z,5.10
2023-03-18T06:41:55.465Z,4.93
2023-03-18T06:44:44.006Z,5.00
2023-03-18T06:47:20.528Z,5.20
2023-03-18T06:49:55.318Z,4.90
2023-03-18T06:52:37.244Z,4.70
2023-03-18T06:55:15.146Z,4.75
2023-03-18T06:57:59.210Z,5.10
2023-03-18T07:00:39.250Z,5.07
2023-03-18T07:03:10.572Z,4.90
2023-03-18T07:05:39.757Z,4.85
2023-03-18T07:08:09.211Z,4.70
2023-03-18T07:10:38.289Z,4.78
2023-03-18T07:13:15.980Z,4.53
2023-03-18T07:15:44.608Z,4.60
2023-03-18T07:18:15.189Z,4.60
2023-03-18T07:20:44.596Z,4.45
2023-03-18T07:23:12.666Z,4.32
2023-03-18T07:25:42.060Z,4.23
2023-03-18T07:28:13.821Z,4.57
2023-03-18T07:30:42.203Z,4.18
2023-03-18T07:33:10.580Z,4.00
2023-03-18T07:35:41.849Z,4.35
2023-03-18T07:38:13.920Z,4.32
2023-03-18T07:40:44.380Z,4.43
2023-03-18T07:43:17.373Z,4.47
2023-03-18T07:45:48.946Z,4.00
2023-03-18T07:48:18.240Z,4.13
2023-03-18T07:50:48.178Z,4.03
2023-03-18T07:53:18.826Z,4.15
2023-03-18T07:55:48.685Z,3.88
2023-03-18T07:58:19.351Z,4.38
2023-03-18T08:00:47.552Z,4.32
2023-03-18T08:03:19.802Z,4.70
2023-03-18T08:05:48.283Z,4.22
2023-03-18T08:08:19.157Z,4.43
2023-03-18T08:10:47.638Z,4.80
2023-03-18T08:13:16.009Z,4.22
2023-03-18T08:15:47.234Z,4.15
2023-03-18T08:18:15.792Z,4.18
2023-03-18T08:20:43.772Z,5.10
2023-03-18T08:23:14.896Z,4.50
2023-03-18T08:25:43.488Z,3.83
2023-03-18T08:28:13.908Z,3.97
2023-03-18T08:30:43.211Z,4.40
2023-03-18T08:33:14.303Z,4.72
2023-03-18T08:35:46.026Z,4.22
2023-03-18T08:38:14.510Z,4.68
2023-03-18T08:40:44.655Z,4.40
2023-03-18T08:43:13.516Z,4.15
2023-03-18T08:45:41.561Z,3.88
2023-03-18T08:48:11.839Z,4.30
2023-03-18T08:50:41.731Z,4.47
2023-03-18T08:53:11.884Z,4.15
2023-03-18T08:58:12.605Z,4.43
2023-03-18T09:00:43.298Z,4.40
2023-03-18T09:03:13.171Z,4.55
2023-03-18T09:05:48.566Z,4.80
2023-03-18T09:08:17.964Z,4.88
2023-03-18T09:10:48.348Z,4.50
2023-03-18T09:13:17.211Z,4.47
2023-03-18T09:15:48.711Z,4.70
2023-03-18T09:18:19.850Z,4.85
2023-03-18T09:20:50.486Z,5.30
2023-03-18T09:23:20.041Z,5.22
2023-03-18T09:25:48.393Z,4.60
2023-03-18T09:28:18.146Z,6.05
2023-03-18T09:30:47.267Z,4.90
2023-03-18T09:33:16.161Z,4.80
2023-03-18T09:35:49.265Z,5.38
2023-03-18T09:38:20.994Z,5.05
2023-03-18T09:41:05.217Z,5.30
2023-03-18T09:44:02.961Z,5.32
2023-03-18T09:46:41.599Z,5.00
2023-03-18T09:49:30.160Z,5.07
2023-03-18T09:52:09.229Z,4.80
2023-03-18T09:54:44.343Z,5.03
2023-03-18T09:57:19.651Z,4.82
2023-03-18T09:59:51.989Z,4.85
2023-03-18T10:02:25.400Z,5.90
2023-03-18T10:04:57.853Z,5.68
2023-03-18T10:07:36.434Z,5.78
2023-03-18T10:10:11.271Z,5.43
2023-03-18T10:12:47.075Z,5.10
2023-03-18T10:15:19.093Z,5.22
2023-03-18T10:17:53.356Z,5.00
2023-03-18T10:20:33.261Z,5.43
2023-03-18T10:23:12.796Z,5.30
2023-03-18T10:25:49.582Z,5.00
2023-03-18T10:28:54.521Z,5.32
2023-03-18T10:31:35.539Z,5.47
2023-03-18T10:34:11.812Z,5.10
2023-03-18T10:36:51.252Z,5.50
2023-03-18T10:39:23.930Z,4.70
2023-03-18T10:41:57.777Z,4.35
2023-03-18T10:44:31.339Z,4.57
2023-03-18T10:47:03.457Z,4.40
2023-03-18T10:49:37.142Z,4.72
2023-03-18T10:52:11.903Z,4.43
2023-03-18T10:54:44.648Z,4.82
2023-03-18T10:57:17.051Z,4.38
2023-03-18T10:59:46.080Z,4.95
2023-03-18T11:02:21.040Z,4.07
2023-03-18T11:04:54.832Z,4.30
2023-03-18T11:07:26.778Z,4.78
2023-03-18T11:10:13.613Z,4.28
2023-03-18T11:12:44.784Z,3.88
2023-03-18T11:15:15.548Z,3.95
2023-03-18T11:17:44.157Z,4.30
2023-03-18T11:20:25.058Z,3.95
2023-03-18T11:22:57.576Z,3.78
2023-03-18T11:25:31.485Z,3.53
2023-03-18T11:28:05.336Z,3.22
2023-03-18T11:30:47.209Z,2.95
2023-03-18T11:33:17.480Z,3.70
2023-03-18T11:35:53.574Z,3.53
2023-03-18T11:38:28.698Z,3.30
2023-03-18T11:41:09.171Z,2.95
2023-03-18T11:43:39.844Z,2.78
2023-03-18T11:46:10.808Z,2.78
2023-03-18T11:48:42.037Z,2.35
2023-03-18T11:51:30.732Z,2.65
2023-03-18T11:54:21.731Z,2.50
2023-03-18T11:56:56.355Z,2.20
2023-03-18T11:59:36.887Z,2.33
2023-03-18T12:02:40.938Z,2.70
2023-03-18T12:05:49.420Z,2.25
2023-03-18T12:08:32.205Z,2.33
2023-03-18T12:11:10.510Z,2.45
2023-03-18T12:13:49.541Z,2.38
2023-03-18T12:16:37.265Z,2.28
2023-03-18T12:19:32.685Z,2.00
2023-03-18T12:22:19.328Z,2.22
2023-03-18T12:25:03.924Z,2.42
2023-03-18T12:27:43.858Z,2.30
2023-03-18T12:33:06.057Z,2.50
2023-03-18T12:35:49.495Z,2.22
2023-03-18T12:38:50.628Z,2.15
2023-03-18T12:41:21.753Z,2.78
2023-03-18T12:44:02.118Z,2.20
2023-03-18T12:46:34.998Z,2.05
2023-03-18T12:49:11.572Z,2.08
2023-03-18T12:51:45.186Z,2.22
2023-03-18T12:54:22.100Z,2.17
2023-03-18T12:56:55.136Z,2.30
2023-03-18T12:59:30.651Z,2.30
2023-03-18T13:02:31.566Z,2.00
2023-03-18T13:05:06.861Z,2.38
2023-03-18T13:07:41.452Z,2.17
2023-03-18T13:10:24.097Z,2.17
2023-03-18T13:12:55.790Z,2.10
2023-03-18T13:15:33.371Z,2.58
2023-03-18T13:18:14.738Z,2.75
2023-03-18T13:20:50.475Z,2.85
2023-03-18T13:23:33.831Z,2.58
2023-03-18T13:26:12.475Z,2.75
2023-03-18T13:28:52.290Z,2.72
2023-03-18T13:31:32.449Z,2.80
2023-03-18T13:37:14.088Z,2.80
2023-03-18T13:40:05.740Z,2.75
2023-03-18T13:42:36.848Z,2.80
2023-03-18T13:45:13.045Z,3.33
2023-03-18T13:47:44.811Z,3.25
2023-03-18T13:50:29.075Z,3.10
2023-03-18T13:53:02.400Z,2.70
2023-03-18T13:55:34.806Z,2.22
2023-03-18T13:58:20.986Z,2.53
2023-03-18T14:01:15.365Z,2.92
2023-03-18T14:04:01.193Z,2.30
2023-03-18T14:06:52.254Z,2.78
2023-03-18T14:09:54.842Z,2.40
2023-03-18T14:12:40.589Z,2.55
2023-03-18T14:15:38.606Z,2.50
2023-03-18T14:18:24.365Z,2.13
2023-03-18T14:21:04.861Z,2.40
2023-03-18T14:23:40.742Z,2.25
2023-03-18T14:26:24.782Z,1.92
2023-03-18T14:28:57.707Z,2.20
2023-03-18T14:31:33.909Z,2.10
2023-03-18T14:34:25.034Z,2.10
2023-03-18T14:37:21.739Z,1.67
2023-03-18T14:39:55.272Z,1.80
2023-03-18T14:42:35.565Z,1.92
2023-03-18T14:45:28.501Z,1.85
2023-03-18T14:48:06.005Z,2.00
2023-03-18T14:50:42.935Z,2.08
2023-03-18T14:53:21.014Z,2.80
2023-03-18T14:55:56.946Z,1.80
2023-03-18T14:58:29.342Z,1.90
2023-03-18T15:01:04.597Z,1.80
2023-03-18T15:03:34.510Z,1.92
2023-03-18T15:06:07.521Z,1.70
2023-03-18T15:08:48.169Z,1.70
2023-03-18T15:11:18.270Z,1.98
2023-03-18T15:13:48.827Z,2.10
2023-03-18T15:16:20.404Z,1.80
2023-03-18T15:18:55.390Z,2.15
2023-03-18T15:21:30.126Z,1.98
2023-03-18T15:24:06.797Z,1.70
2023-03-18T15:26:39.379Z,1.75
2023-03-18T15:29:35.221Z,1.90
2023-03-18T15:32:17.392Z,1.50
2023-03-18T15:34:54.633Z,1.92
2023-03-18T15:37:36.334Z,1.50
2023-03-18T15:40:31.449Z,1.50
2023-03-18T15:43:04.491Z,1.48
2023-03-18T15:45:36.186Z,1.20
2023-03-18T15:48:19.224Z,1.35
2023-03-18T15:50:54.735Z,1.23
2023-03-18T15:53:25.672Z,1.15
2023-03-18T15:56:04.702Z,1.15
2023-03-18T15:58:37.909Z,1.15
2023-03-18T16:01:18.262Z,1.02
2023-03-18T16:03:48.263Z,1.40
2023-03-18T16:06:19.598Z,1.38
2023-03-18T16:08:49.987Z,1.60
2023-03-18T16:11:19.417Z,1.25
2023-03-18T16:13:48.143Z,1.67
2023-03-18T16:16:27.604Z,1.40
2023-03-18T16:18:58.701Z,1.48
2023-03-18T16:21:27.105Z,1.15
2023-03-18T16:23:56.039Z,1.10
2023-03-18T16:26:25.714Z,1.25
2023-03-18T16:28:54.021Z,1.38
2023-03-18T16:31:26.698Z,1.17
2023-03-18T16:33:57.613Z,1.10
2023-03-18T16:36:32.142Z,1.10
2023-03-18T16:39:03.619Z,1.10
2023-03-18T16:41:31.641Z,1.25
2023-03-18T16:44:01.241Z,1.00
2023-03-18T16:46:31.901Z,1.00
2023-03-18T16:49:09.434Z,1.10
2023-03-18T16:51:43.071Z,1.00
2023-03-18T16:54:21.213Z,1.30
2023-03-18T16:56:52.640Z,1.10
2023-03-18T16:59:22.201Z,1.17
2023-03-18T17:01:54.269Z,1.70
2023-03-18T17:04:28.481Z,1.63
2023-03-18T17:06:58.719Z,1.25
2023-03-18T17:09:28.413Z,1.52
2023-03-18T17:12:00.894Z,1.80
2023-03-18T17:14:33.802Z,1.80
2023-03-18T17:17:07.202Z,1.80
2023-03-18T17:19:37.560Z,2.17
2023-03-18T17:22:14.092Z,2.78
2023-03-18T17:24:43.103Z,2.72
2023-03-18T17:27:12.505Z,2.35
2023-03-18T17:32:11.895Z,2.67
2023-03-18T17:34:42.281Z,2.78
2023-03-18T17:37:10.532Z,2.67
2023-03-18T17:39:39.460Z,2.85
2023-03-18T17:42:23.826Z,3.10
2023-03-18T17:44:54.344Z,4.28
2023-03-18T17:47:26.962Z,4.97
2023-03-18T17:49:55.589Z,4.22
2023-03-18T17:52:25.224Z,3.80
2023-03-18T17:54:56.823Z,2.97
2023-03-18T17:57:25.997Z,3.13
2023-03-18T17:59:54.242Z,3.90
2023-03-18T18:02:23.045Z,4.30
2023-03-18T18:04:59.129Z,4.22
2023-03-18T18:07:29.111Z,4.88
2023-03-18T18:10:00.444Z,5.63
2023-03-18T18:12:32.543Z,5.90
2023-03-18T18:15:00.978Z,5.70
2023-03-18T18:17:31.541Z,5.40
2023-03-18T18:20:05.773Z,4.88
2023-03-18T18:22:37.419Z,5.10
2023-03-18T18:25:07.766Z,5.10
2023-03-18T18:27:38.164Z,4.78
2023-03-18T18:30:08.804Z,5.60
2023-03-18T18:32:38.167Z,8.95
2023-03-18T18:35:11.214Z,8.10
2023-03-18T18:37:39.510Z,7.68
2023-03-18T18:40:10.638Z,8.07
2023-03-18T18:42:41.908Z,7.60
2023-03-18T18:45:18.080Z,7.95
2023-03-18T18:47:47.937Z,7.90
2023-03-18T18:50:22.092Z,7.45
2023-03-18T18:52:51.574Z,6.30
2023-03-18T18:55:21.221Z,5.95
2023-03-18T18:57:50.156Z,5.82
2023-03-18T19:00:24.538Z,6.82
2023-03-18T19:02:58.004Z,7.35
2023-03-18T19:05:28.935Z,6.90
2023-03-18T19:07:57.966Z,6.20
2023-03-18T19:10:28.592Z,6.72
2023-03-18T19:12:59.412Z,7.20
2023-03-18T19:15:29.392Z,6.50
2023-03-18T19:17:58.584Z,8.18
2023-03-18T19:20:32.279Z,7.45
2023-03-18T19:23:03.585Z,7.88
2023-03-18T19:25:32.412Z,8.05
2023-03-18T19:28:03.506Z,7.38
2023-03-18T19:30:33.538Z,8.38
2023-03-18T19:33:04.921Z,8.88
2023-03-18T19:35:36.677Z,8.68
2023-03-18T19:38:06.585Z,8.48
2023-03-18T19:40:35.140Z,8.20
2023-03-18T19:43:03.534Z,8.38
2023-03-18T19:45:33.254Z,10.82
2023-03-18T19:48:02.006Z,13.15
2023-03-18T19:50:30.900Z,12.85
2023-03-18T19:53:01.892Z,11.48
2023-03-18T19:55:29.998Z,10.45
2023-03-18T19:57:58.888Z,10.40
2023-03-18T20:00:28.119Z,11.50
2023-03-18T20:02:56.848Z,10.40
2023-03-18T20:05:26.527Z,9.13
2023-03-18T20:07:58.448Z,9.13
2023-03-18T20:10:30.841Z,8.63
2023-03-18T20:12:59.684Z,9.27
2023-03-18T20:15:29.371Z,11.05
2023-03-18T20:18:01.013Z,11.73
2023-03-18T20:20:32.010Z,13.80
2023-03-18T20:23:03.842Z,12.75
2023-03-18T20:25:38.315Z,12.85
2023-03-18T20:28:12.965Z,12.05
2023-03-18T20:30:44.615Z,12.15
2023-03-18T20:33:14.336Z,11.52
2023-03-18T20:35:46.175Z,14.68
2023-03-18T20:38:19.534Z,14.13
2023-03-18T20:40:49.846Z,14.88
2023-03-18T20:43:19.564Z,12.50
2023-03-18T20:45:52.164Z,12.63
2023-03-18T20:48:22.934Z,11.70
2023-03-18T20:50:54.279Z,10.75
2023-03-18T20:53:25.869Z,11.98
2023-03-18T20:55:57.122Z,11.82
2023-03-18T20:58:32.260Z,12.00
2023-03-18T21:01:03.664Z,12.40
2023-03-18T21:03:33.551Z,13.18
2023-03-18T21:08:37.241Z,11.45
2023-03-18T21:11:16.928Z,12.77
2023-03-18T21:13:46.345Z,12.93
2023-03-18T21:16:16.722Z,13.52
2023-03-18T21:18:47.233Z,12.68
2023-03-18T21:21:22.471Z,12.10
2023-03-18T21:23:53.790Z,11.93
2023-03-18T21:26:31.376Z,12.82
2023-03-18T21:29:00.727Z,13.60
2023-03-18T21:31:31.190Z,13.60
2023-03-18T21:34:01.252Z,13.57
2023-03-18T21:36:29.553Z,13.82
2023-03-18T21:38:57.610Z,14.48
2023-03-18T21:41:30.603Z,13.75
2023-03-18T21:43:58.621Z,13.40
2023-03-18T21:46:28.445Z,12.27
2023-03-18T21:48:57.813Z,12.70
2023-03-18T21:51:38.725Z,10.30
2023-03-18T21:54:08.582Z,8.80
2023-03-18T21:56:40.065Z,7.53
2023-03-18T21:59:09.644Z,8.40
2023-03-18T22:01:37.679Z,7.63
2023-03-18T22:04:08.279Z,9.02
2023-03-18T22:06:37.084Z,8.00
2023-03-18T22:09:05.718Z,6.72
2023-03-18T22:11:33.744Z,5.95
2023-03-18T22:14:03.572Z,5.45
2023-03-18T22:16:31.620Z,5.68
2023-03-18T22:18:59.479Z,5.28
2023-03-18T22:21:29.103Z,4.68
2023-03-18T22:23:58.136Z,4.90
2023-03-18T22:26:26.832Z,5.38
2023-03-18T22:28:55.626Z,5.07
2023-03-18T22:31:27.873Z,5.38
2023-03-18T22:33:56.625Z,5.55
2023-03-18T22:36:25.683Z,6.03
2023-03-18T22:38:55.268Z,5.32
2023-03-18T22:41:25.742Z,5.07
2023-03-18T22:43:55.098Z,5.75
2023-03-18T22:46:23.315Z,5.35
2023-03-18T22:48:53.092Z,4.45
2023-03-18T22:51:24.428Z,4.47
2023-03-18T22:53:54.476Z,4.32
2023-03-18T22:58:52.331Z,4.00
2023-03-18T23:01:22.287Z,4.20
2023-03-18T23:03:50.805Z,4.05
2023-03-18T23:06:24.226Z,3.92
2023-03-18T23:08:52.323Z,4.25
2023-03-18T23:11:20.319Z,3.80
2023-03-18T23:13:51.327Z,3.92
2023-03-18T23:16:21.407Z,4.00
2023-03-18T23:18:51.253Z,4.18
2023-03-18T23:21:22.839Z,3.88
2023-03-18T23:24:15.508Z,4.05
2023-03-18T23:26:43.604Z,3.55
2023-03-18T23:29:11.516Z,3.78
2023-03-18T23:31:40.507Z,3.72
2023-03-18T23:34:08.454Z,3.33
2023-03-18T23:36:38.817Z,3.60
2023-03-18T23:39:07.397Z,3.28
2023-03-18T23:41:35.542Z,3.00
2023-03-18T23:44:05.707Z,3.08
2023-03-18T23:46:34.109Z,3.08
2023-03-18T23:49:02.200Z,3.35
2023-03-18T23:51:30.670Z,3.20
2023-03-18T23:54:02.059Z,2.72
2023-03-18T23:56:30.562Z,2.80
2023-03-18T23:58:58.969Z,2.88
